Time,TemperatureF,DewpointF,PressureIn,WindDirection,WindDirectionDegrees,WindSpeedMPH,WindSpeedGustMPH,Humidity,HourlyPrecipIn,Conditions,Clouds,dailyrainin,SoftwareType,DateUTC
2013-11-29 00:05:00,39.3,36.6,30.46,North,32767,0.0,3.0,90,0.00,,,0.00,Wunderground v.1.15,2013-11-29 05:05:00,
2013-11-29 00:10:00,39.1,36.4,30.46,North,32767,0.0,3.0,90,0.00,,,0.00,Wunderground v.1.15,2013-11-29 05:10:00,
2013-11-29 00:20:00,39.1,36.4,30.46,North,32767,0.0,3.0,90,0.00,,,0.00,Wunderground v.1.15,2013-11-29 05:20:00,
2013-11-29 00:25:00,39.1,36.1,30.46,North,32767,0.0,3.0,89,0.00,,,0.00,Wunderground v.1.15,2013-11-29 05:25:00,
2013-11-29 00:30:00,39.2,36.5,30.46,North,32767,0.0,0.0,90,0.00,,,0.00,Wunderground v.1.15,2013-11-29 05:30:00,
2013-11-29 00:35:00,39.3,36.6,30.46,North,32767,0.0,0.0,90,0.00,,,0.00,Wunderground v.1.15,2013-11-29 05:35:00,
2013-11-29 00:40:00,39.4,36.7,30.45,North,32767,0.0,0.0,90,0.00,,,0.00,Wunderground v.1.15,2013-11-29 05:40:00,
2013-11-29 00:45:00,39.3,36.0,30.45,North,32767,0.0,0.0,88,0.00,,,0.00,Wunderground v.1.15,2013-11-29 05:45:00,
2013-11-29 00:55:00,39.2,35.4,30.45,North,32767,0.0,0.0,86,0.00,,,0.00,Wunderground v.1.15,2013-11-29 05:55:00,
2013-11-29 01:05:00,39.0,35.2,30.45,North,32767,0.0,0.0,86,0.00,,,0.00,Wunderground v.1.15,2013-11-29 06:05:00,
2013-11-29 01:10:00,38.9,35.1,30.44,North,32767,0.0,0.0,86,0.00,,,0.00,Wunderground v.1.15,2013-11-29 06:10:00,
2013-11-29 01:20:00,38.6,34.5,30.44,North,32767,0.0,0.0,85,0.00,,,0.00,Wunderground v.1.15,2013-11-29 06:20:00,
2013-11-29 01:30:00,38.9,34.5,30.45,North,32767,0.0,0.0,84,0.00,,,0.00,Wunderground v.1.15,2013-11-29 06:30:00,
2013-11-29 01:40:00,38.9,34.5,30.45,North,32767,0.0,0.0,84,0.00,,,0.00,Wunderground v.1.15,2013-11-29 06:40:00,
2013-11-29 01:45:00,38.9,34.8,30.45,North,32767,0.0,0.0,85,0.00,,,0.00,Wunderground v.1.15,2013-11-29 06:45:00,
2013-11-29 01:55:00,38.9,34.8,30.45,North,32767,0.0,0.0,85,0.00,,,0.00,Wunderground v.1.15,2013-11-29 06:55:00,
2013-11-29 02:05:00,39.1,35.0,30.44,North,32767,0.0,1.0,85,0.00,,,0.00,Wunderground v.1.15,2013-11-29 07:05:00,
2013-11-29 02:15:00,39.5,35.1,30.44,North,32767,1.0,1.0,84,0.00,,,0.00,Wunderground v.1.15,2013-11-29 07:15:00,
2013-11-29 02:20:00,39.7,35.3,30.44,North,32767,1.0,1.0,84,0.00,,,0.00,Wunderground v.1.15,2013-11-29 07:20:00,
2013-11-29 02:30:00,39.9,34.5,30.44,North,32767,1.0,1.0,81,0.00,,,0.00,Wunderground v.1.15,2013-11-29 07:30:00,
2013-11-29 02:35:00,40.0,34.3,30.44,North,32767,1.0,1.0,80,0.00,,,0.00,Wunderground v.1.15,2013-11-29 07:35:00,
2013-11-29 02:40:00,40.2,34.8,30.44,North,32767,1.0,2.0,81,0.00,,,0.00,Wunderground v.1.15,2013-11-29 07:40:00,
2013-11-29 02:50:00,40.3,34.6,30.44,North,32767,1.0,1.0,80,0.00,,,0.00,Wunderground v.1.15,2013-11-29 07:50:00,
2013-11-29 02:55:00,40.3,34.3,30.44,North,32767,1.0,1.0,79,0.00,,,0.00,Wunderground v.1.15,2013-11-29 07:55:00,
2013-11-29 03:05:00,40.3,34.6,30.44,North,32767,1.0,1.0,80,0.00,,,0.00,Wunderground v.1.15,2013-11-29 08:05:00,
2013-11-29 03:15:00,40.4,35.0,30.44,North,32767,1.0,1.0,81,0.00,,,0.00,Wunderground v.1.15,2013-11-29 08:15:00,
2013-11-29 03:25:00,40.2,34.5,30.44,North,32767,1.0,1.0,80,0.00,,,0.00,Wunderground v.1.15,2013-11-29 08:25:00,
2013-11-29 03:35:00,40.3,35.2,30.43,North,32767,0.0,1.0,82,0.00,,,0.00,Wunderground v.1.15,2013-11-29 08:35:00,
2013-11-29 03:45:00,40.3,34.9,30.43,North,32767,1.0,1.0,81,0.00,,,0.00,Wunderground v.1.15,2013-11-29 08:45:00,
2013-11-29 03:55:00,40.2,34.8,30.43,North,32767,1.0,2.0,81,0.00,,,0.00,Wunderground v.1.15,2013-11-29 08:55:00,
2013-11-29 04:00:00,40.2,34.8,30.43,North,32767,0.0,0.0,81,0.00,,,0.00,Wunderground v.1.15,2013-11-29 09:00:00,
2013-11-29 04:10:00,40.1,35.0,30.43,North,32767,0.0,6.0,82,0.00,,,0.00,Wunderground v.1.15,2013-11-29 09:10:00,
2013-11-29 04:15:00,40.1,35.0,30.43,North,32767,0.0,6.0,82,0.00,,,0.00,Wunderground v.1.15,2013-11-29 09:15:00,
2013-11-29 04:25:00,40.0,35.3,30.43,North,32767,0.0,6.0,83,0.00,,,0.00,Wunderground v.1.15,2013-11-29 09:25:00,
2013-11-29 04:35:00,40.0,35.3,30.43,North,32767,0.0,0.0,83,0.00,,,0.00,Wunderground v.1.15,2013-11-29 09:35:00,
2013-11-29 04:45:00,39.9,35.2,30.43,North,32767,0.0,0.0,83,0.00,,,0.00,Wunderground v.1.15,2013-11-29 09:45:00,
2013-11-29 04:50:00,39.9,35.2,30.43,North,32767,0.0,0.0,83,0.00,,,0.00,Wunderground v.1.15,2013-11-29 09:50:00,
2013-11-29 05:00:00,39.9,35.2,30.43,North,32767,0.0,1.0,83,0.00,,,0.00,Wunderground v.1.15,2013-11-29 10:00:00,
2013-11-29 05:05:00,39.9,35.2,30.43,North,32767,0.0,4.0,83,0.00,,,0.00,Wunderground v.1.15,2013-11-29 10:05:00,
2013-11-29 05:15:00,39.8,35.1,30.43,North,32767,0.0,4.0,83,0.00,,,0.00,Wunderground v.1.15,2013-11-29 10:15:00,
2013-11-29 05:20:00,39.8,35.1,30.43,North,32767,0.0,4.0,83,0.00,,,0.00,Wunderground v.1.15,2013-11-29 10:20:00,
2013-11-29 05:30:00,39.8,35.1,30.44,North,32767,0.0,0.0,83,0.00,,,0.00,Wunderground v.1.15,2013-11-29 10:30:00,
2013-11-29 05:35:00,39.8,35.1,30.44,North,32767,0.0,0.0,83,0.00,,,0.00,Wunderground v.1.15,2013-11-29 10:35:00,
2013-11-29 05:45:00,39.6,34.9,30.44,North,32767,0.0,0.0,83,0.00,,,0.00,Wunderground v.1.15,2013-11-29 10:45:00,
2013-11-29 05:55:00,39.6,34.6,30.44,North,32767,0.0,2.0,82,0.00,,,0.00,Wunderground v.1.15,2013-11-29 10:55:00,
2013-11-29 06:05:00,39.6,33.9,30.44,North,32767,0.0,2.0,80,0.00,,,0.00,Wunderground v.1.15,2013-11-29 11:05:00,
2013-11-29 06:10:00,39.7,34.0,30.44,North,32767,1.0,2.0,80,0.00,,,0.00,Wunderground v.1.15,2013-11-29 11:10:00,
2013-11-29 06:20:00,39.8,33.8,30.45,North,32767,1.0,1.0,79,0.00,,,0.00,Wunderground v.1.15,2013-11-29 11:20:00,
2013-11-29 06:25:00,39.8,33.8,30.45,North,32767,1.0,3.0,79,0.00,,,0.00,Wunderground v.1.15,2013-11-29 11:25:00,
2013-11-29 06:35:00,39.7,33.4,30.45,North,32767,1.0,1.0,78,0.00,,,0.00,Wunderground v.1.15,2013-11-29 11:35:00,
2013-11-29 06:40:00,39.8,33.5,30.45,North,32767,1.0,1.0,78,0.00,,,0.00,Wunderground v.1.15,2013-11-29 11:40:00,
2013-11-29 06:50:00,39.8,33.5,30.45,North,32767,1.0,1.0,78,0.00,,,0.00,Wunderground v.1.15,2013-11-29 11:50:00,
2013-11-29 06:55:00,39.8,33.5,30.45,North,32767,1.0,1.0,78,0.00,,,0.00,Wunderground v.1.15,2013-11-29 11:55:00,
2013-11-29 07:05:00,39.8,33.5,30.45,North,32767,1.0,2.0,78,0.00,,,0.00,Wunderground v.1.15,2013-11-29 12:05:00,
2013-11-29 07:10:00,39.8,33.5,30.46,North,32767,1.0,2.0,78,0.00,,,0.00,Wunderground v.1.15,2013-11-29 12:10:00,
2013-11-29 07:20:00,40.1,34.4,30.46,North,32767,0.0,2.0,80,0.00,,,0.00,Wunderground v.1.15,2013-11-29 12:20:00,
2013-11-29 07:25:00,40.2,34.2,30.46,North,32767,1.0,2.0,79,0.00,,,0.00,Wunderground v.1.15,2013-11-29 12:25:00,
2013-11-29 07:35:00,40.6,34.9,30.46,North,32767,1.0,2.0,80,0.00,,,0.00,Wunderground v.1.15,2013-11-29 12:35:00,
2013-11-29 07:40:00,40.8,35.1,30.46,North,32767,1.0,1.0,80,0.00,,,0.00,Wunderground v.1.15,2013-11-29 12:40:00,
2013-11-29 07:50:00,41.5,35.2,30.47,North,32767,1.0,1.0,78,0.00,,,0.00,Wunderground v.1.15,2013-11-29 12:50:00,
2013-11-29 07:55:00,41.9,35.9,30.47,North,32767,2.0,2.0,79,0.00,,,0.00,Wunderground v.1.15,2013-11-29 12:55:00,
2013-11-29 08:05:00,42.7,36.0,30.47,North,32767,2.0,4.0,77,0.00,,,0.00,Wunderground v.1.15,2013-11-29 13:05:00,
2013-11-29 08:10:00,43.2,36.1,30.47,North,32767,2.0,4.0,76,0.00,,,0.00,Wunderground v.1.15,2013-11-29 13:10:00,
2013-11-29 08:15:00,43.8,36.7,30.47,North,32767,3.0,5.0,76,0.00,,,0.00,Wunderground v.1.15,2013-11-29 13:15:00,
2013-11-29 08:25:00,44.8,37.7,30.47,North,32767,2.0,4.0,76,0.00,,,0.00,Wunderground v.1.15,2013-11-29 13:25:00,
2013-11-29 08:30:00,45.3,38.2,30.47,North,32767,2.0,3.0,76,0.00,,,0.00,Wunderground v.1.15,2013-11-29 13:30:00,
2013-11-29 08:35:00,45.7,38.2,30.48,North,32767,2.0,3.0,75,0.00,,,0.00,Wunderground v.1.15,2013-11-29 13:35:00,
2013-11-29 08:45:00,46.4,38.9,30.48,North,32767,3.0,3.0,75,0.00,,,0.00,Wunderground v.1.15,2013-11-29 13:45:00,
2013-11-29 08:50:00,47.2,40.0,30.48,North,32767,2.0,4.0,76,0.00,,,0.00,Wunderground v.1.15,2013-11-29 13:50:00,
2013-11-29 09:00:00,47.8,39.9,30.48,North,32767,3.0,3.0,74,0.00,,,0.00,Wunderground v.1.15,2013-11-29 14:00:00,
2013-11-29 09:05:00,48.3,40.7,30.48,North,32767,4.0,4.0,75,0.00,,,0.00,Wunderground v.1.15,2013-11-29 14:05:00,
2013-11-29 09:10:00,48.7,40.4,30.48,North,32767,4.0,5.0,73,0.00,,,0.00,Wunderground v.1.15,2013-11-29 14:10:00,
2013-11-29 09:20:00,49.4,41.5,30.48,North,32767,4.0,4.0,74,0.00,,,0.00,Wunderground v.1.15,2013-11-29 14:20:00,
2013-11-29 09:25:00,50.2,41.5,30.49,North,32767,3.0,6.0,72,0.00,,,0.00,Wunderground v.1.15,2013-11-29 14:25:00,
2013-11-29 09:35:00,51.0,41.9,30.49,North,32767,3.0,7.0,71,0.00,,,0.00,Wunderground v.1.15,2013-11-29 14:35:00,
2013-11-29 09:40:00,51.4,41.9,30.48,North,32767,4.0,4.0,70,0.00,,,0.00,Wunderground v.1.15,2013-11-29 14:40:00,
2013-11-29 09:50:00,52.8,43.3,30.49,North,32767,3.0,3.0,70,0.00,,,0.00,Wunderground v.1.15,2013-11-29 14:50:00,
2013-11-29 09:55:00,53.0,42.3,30.49,North,32767,3.0,3.0,67,0.00,,,0.00,Wunderground v.1.15,2013-11-29 14:55:00,
2013-11-29 10:05:00,53.9,42.8,30.49,North,32767,3.0,7.0,66,0.00,,,0.00,Wunderground v.1.15,2013-11-29 15:05:00,
2013-11-29 10:15:00,54.7,42.3,30.49,North,32767,3.0,7.0,63,0.00,,,0.00,Wunderground v.1.15,2013-11-29 15:15:00,
2013-11-29 10:25:00,55.2,42.0,30.49,North,32767,4.0,7.0,61,0.00,,,0.00,Wunderground v.1.15,2013-11-29 15:25:00,
2013-11-29 10:30:00,55.7,42.0,30.49,North,32767,4.0,4.0,60,0.00,,,0.00,Wunderground v.1.15,2013-11-29 15:30:00,
2013-11-29 10:40:00,56.2,42.5,30.48,North,32767,4.0,4.0,60,0.00,,,0.00,Wunderground v.1.15,2013-11-29 15:40:00,
2013-11-29 10:50:00,57.1,43.3,30.48,North,32767,4.0,4.0,60,0.00,,,0.00,Wunderground v.1.15,2013-11-29 15:50:00,
2013-11-29 11:00:00,57.9,43.7,30.48,North,32767,3.0,3.0,59,0.00,,,0.00,Wunderground v.1.15,2013-11-29 16:00:00,
2013-11-29 11:10:00,58.8,44.9,30.47,North,32767,3.0,8.0,60,0.00,,,0.00,Wunderground v.1.15,2013-11-29 16:10:00,
2013-11-29 11:20:00,59.3,44.5,30.47,North,32767,3.0,3.0,58,0.00,,,0.00,Wunderground v.1.15,2013-11-29 16:20:00,
2013-11-29 11:25:00,59.4,44.2,30.47,North,32767,3.0,3.0,57,0.00,,,0.00,Wunderground v.1.15,2013-11-29 16:25:00,
2013-11-29 11:35:00,60.0,44.3,30.47,North,32767,3.0,3.0,56,0.00,,,0.00,Wunderground v.1.15,2013-11-29 16:35:00,
2013-11-29 11:45:00,60.8,43.6,30.46,North,32767,2.0,3.0,53,0.00,,,0.00,Wunderground v.1.15,2013-11-29 16:45:00,
2013-11-29 11:55:00,60.9,45.1,30.46,North,32767,3.0,4.0,56,0.00,,,0.00,Wunderground v.1.15,2013-11-29 16:55:00,
2013-11-29 12:05:00,61.7,45.4,30.45,North,32767,2.0,10.0,55,0.00,,,0.00,Wunderground v.1.15,2013-11-29 17:05:00,
2013-11-29 12:15:00,61.8,45.5,30.45,North,32767,3.0,10.0,55,0.00,,,0.00,Wunderground v.1.15,2013-11-29 17:15:00,
2013-11-29 12:25:00,62.1,45.7,30.45,North,32767,3.0,4.0,55,0.00,,,0.00,Wunderground v.1.15,2013-11-29 17:25:00,
2013-11-29 12:30:00,62.4,45.5,30.44,North,32767,4.0,4.0,54,0.00,,,0.00,Wunderground v.1.15,2013-11-29 17:30:00,
2013-11-29 12:40:00,62.8,45.9,30.43,North,32767,4.0,4.0,54,0.00,,,0.00,Wunderground v.1.15,2013-11-29 17:40:00,
2013-11-29 12:50:00,63.0,46.6,30.43,North,32767,3.0,3.0,55,0.00,,,0.00,Wunderground v.1.15,2013-11-29 17:50:00,
2013-11-29 13:00:00,63.5,46.1,30.43,North,32767,4.0,4.0,53,0.00,,,0.00,Wunderground v.1.15,2013-11-29 18:00:00,
2013-11-29 13:10:00,63.8,46.3,30.42,North,32767,4.0,4.0,53,0.00,,,0.00,Wunderground v.1.15,2013-11-29 18:10:00,
2013-11-29 13:20:00,64.2,48.2,30.42,North,32767,4.0,4.0,56,0.00,,,0.00,Wunderground v.1.15,2013-11-29 18:20:00,
2013-11-29 13:25:00,64.5,47.5,30.42,North,32767,3.0,4.0,54,0.00,,,0.00,Wunderground v.1.15,2013-11-29 18:25:00,
2013-11-29 13:35:00,65.3,48.7,30.42,North,32767,3.0,6.0,55,0.00,,,0.00,Wunderground v.1.15,2013-11-29 18:35:00,
2013-11-29 13:40:00,65.4,48.3,30.41,North,32767,3.0,3.0,54,0.00,,,0.00,Wunderground v.1.15,2013-11-29 18:40:00,
2013-11-29 13:50:00,65.4,47.3,30.41,North,32767,3.0,3.0,52,0.00,,,0.00,Wunderground v.1.15,2013-11-29 18:50:00,
2013-11-29 14:00:00,65.5,48.9,30.41,North,32767,2.0,3.0,55,0.00,,,0.00,Wunderground v.1.15,2013-11-29 19:00:00,
2013-11-29 14:10:00,65.4,48.8,30.41,North,32767,3.0,9.0,55,0.00,,,0.00,Wunderground v.1.15,2013-11-29 19:10:00,
2013-11-29 14:20:00,65.5,47.9,30.40,North,32767,4.0,4.0,53,0.00,,,0.00,Wunderground v.1.15,2013-11-29 19:20:00,
2013-11-29 14:25:00,65.6,47.0,30.40,North,32767,4.0,5.0,51,0.00,,,0.00,Wunderground v.1.15,2013-11-29 19:25:00,
2013-11-29 14:35:00,65.3,47.2,30.39,North,32767,4.0,5.0,52,0.00,,,0.00,Wunderground v.1.15,2013-11-29 19:35:00,
2013-11-29 14:40:00,65.3,48.2,30.39,North,32767,4.0,6.0,54,0.00,,,0.00,Wunderground v.1.15,2013-11-29 19:40:00,
2013-11-29 14:45:00,65.4,47.8,30.39,North,32767,4.0,7.0,53,0.00,,,0.00,Wunderground v.1.15,2013-11-29 19:45:00,
2013-11-29 14:55:00,65.1,47.0,30.39,North,32767,5.0,5.0,52,0.00,,,0.00,Wunderground v.1.15,2013-11-29 19:55:00,
2013-11-29 15:05:00,65.1,47.5,30.39,North,32767,5.0,9.0,53,0.00,,,0.00,Wunderground v.1.15,2013-11-29 20:05:00,
2013-11-29 15:10:00,65.2,47.6,30.38,North,32767,5.0,5.0,53,0.00,,,0.00,Wunderground v.1.15,2013-11-29 20:10:00,
2013-11-29 15:20:00,65.1,47.5,30.38,North,32767,4.0,4.0,53,0.00,,,0.00,Wunderground v.1.15,2013-11-29 20:20:00,
2013-11-29 15:25:00,65.2,47.1,30.38,North,32767,4.0,5.0,52,0.00,,,0.00,Wunderground v.1.15,2013-11-29 20:25:00,
2013-11-29 15:35:00,65.2,47.6,30.39,North,32767,4.0,4.0,53,0.00,,,0.00,Wunderground v.1.15,2013-11-29 20:35:00,
2013-11-29 15:45:00,65.4,48.3,30.39,North,32767,3.0,9.0,54,0.00,,,0.00,Wunderground v.1.15,2013-11-29 20:45:00,
2013-11-29 15:55:00,65.1,48.5,30.39,North,32767,3.0,5.0,55,0.00,,,0.00,Wunderground v.1.15,2013-11-29 20:55:00,
2013-11-29 16:05:00,64.7,48.2,30.40,North,32767,3.0,5.0,55,0.00,,,0.00,Wunderground v.1.15,2013-11-29 21:05:00,
2013-11-29 16:15:00,64.1,48.1,30.39,North,32767,3.0,9.0,56,0.00,,,0.00,Wunderground v.1.15,2013-11-29 21:15:00,
2013-11-29 16:25:00,63.4,47.9,30.39,North,32767,2.0,3.0,57,0.00,,,0.00,Wunderground v.1.15,2013-11-29 21:25:00,
2013-11-29 16:30:00,63.2,47.7,30.40,North,32767,2.0,5.0,57,0.00,,,0.00,Wunderground v.1.15,2013-11-29 21:30:00,
2013-11-29 16:40:00,62.8,47.8,30.40,North,32767,3.0,3.0,58,0.00,,,0.00,Wunderground v.1.15,2013-11-29 21:40:00,
2013-11-29 16:50:00,62.3,47.8,30.40,North,32767,2.0,2.0,59,0.00,,,0.00,Wunderground v.1.15,2013-11-29 21:50:00,
2013-11-29 17:00:00,61.6,48.9,30.40,North,32767,1.0,1.0,63,0.00,,,0.00,Wunderground v.1.15,2013-11-29 22:00:00,
2013-11-29 17:05:00,61.1,48.4,30.40,North,32767,1.0,2.0,63,0.00,,,0.00,Wunderground v.1.15,2013-11-29 22:05:00,
2013-11-29 17:15:00,60.0,47.8,30.40,North,32767,2.0,2.0,64,0.00,,,0.00,Wunderground v.1.15,2013-11-29 22:15:00,
2013-11-29 17:20:00,59.4,48.0,30.40,North,32767,1.0,1.0,66,0.00,,,0.00,Wunderground v.1.15,2013-11-29 22:20:00,
2013-11-29 17:30:00,58.4,47.5,30.40,North,32767,1.0,1.0,67,0.00,,,0.00,Wunderground v.1.15,2013-11-29 22:30:00,
2013-11-29 17:40:00,56.8,48.2,30.41,North,32767,0.0,0.0,73,0.00,,,0.00,Wunderground v.1.15,2013-11-29 22:40:00,
2013-11-29 17:50:00,55.2,48.1,30.40,North,32767,0.0,0.0,77,0.00,,,0.00,Wunderground v.1.15,2013-11-29 22:50:00,
2013-11-29 18:00:00,53.4,48.4,30.41,North,32767,0.0,0.0,83,0.00,,,0.00,Wunderground v.1.15,2013-11-29 23:00:00,
2013-11-29 18:05:00,52.7,48.0,30.41,North,32767,0.0,7.0,84,0.00,,,0.00,Wunderground v.1.15,2013-11-29 23:05:00,
2013-11-29 18:15:00,52.2,47.8,30.42,North,32767,0.0,7.0,85,0.00,,,0.00,Wunderground v.1.15,2013-11-29 23:15:00,
2013-11-29 18:25:00,54.7,48.6,30.42,North,32767,2.0,7.0,80,0.00,,,0.00,Wunderground v.1.15,2013-11-29 23:25:00,
2013-11-29 18:30:00,55.4,49.0,30.42,North,32767,2.0,5.0,79,0.00,,,0.00,Wunderground v.1.15,2013-11-29 23:30:00,
2013-11-29 18:40:00,55.9,48.8,30.43,North,32767,4.0,4.0,77,0.00,,,0.00,Wunderground v.1.15,2013-11-29 23:40:00,
2013-11-29 18:50:00,55.9,48.8,30.43,North,32767,2.0,2.0,77,0.00,,,0.00,Wunderground v.1.15,2013-11-29 23:50:00,
2013-11-29 19:00:00,55.7,48.6,30.43,North,32767,2.0,2.0,77,0.00,,,0.00,Wunderground v.1.15,2013-11-30 00:00:00,
2013-11-29 19:05:00,55.6,48.5,30.43,North,32767,2.0,2.0,77,0.00,,,0.00,Wunderground v.1.15,2013-11-30 00:05:00,
2013-11-29 19:15:00,55.5,48.1,30.44,North,32767,2.0,3.0,76,0.00,,,0.00,Wunderground v.1.15,2013-11-30 00:15:00,
2013-11-29 19:20:00,55.3,47.9,30.44,North,32767,2.0,4.0,76,0.00,,,0.00,Wunderground v.1.15,2013-11-30 00:20:00,
2013-11-29 19:30:00,55.2,47.8,30.44,North,32767,2.0,2.0,76,0.00,,,0.00,Wunderground v.1.15,2013-11-30 00:30:00,
2013-11-29 19:35:00,55.1,47.3,30.45,North,32767,3.0,3.0,75,0.00,,,0.00,Wunderground v.1.15,2013-11-30 00:35:00,
2013-11-29 19:45:00,54.9,47.1,30.45,North,32767,4.0,4.0,75,0.00,,,0.00,Wunderground v.1.15,2013-11-30 00:45:00,
2013-11-29 19:50:00,54.8,47.0,30.45,North,32767,4.0,5.0,75,0.00,,,0.00,Wunderground v.1.15,2013-11-30 00:50:00,
2013-11-29 20:00:00,54.6,46.5,30.45,North,32767,3.0,4.0,74,0.00,,,0.00,Wunderground v.1.15,2013-11-30 01:00:00,
2013-11-29 20:10:00,54.5,46.4,30.45,North,32767,3.0,3.0,74,0.00,,,0.00,Wunderground v.1.15,2013-11-30 01:10:00,
2013-11-29 20:20:00,54.3,46.5,30.45,North,32767,2.0,8.0,75,0.00,,,0.00,Wunderground v.1.15,2013-11-30 01:20:00,
2013-11-29 20:25:00,54.3,46.5,30.46,North,32767,3.0,8.0,75,0.00,,,0.00,Wunderground v.1.15,2013-11-30 01:25:00,
2013-11-29 20:35:00,54.3,46.5,30.46,North,32767,3.0,4.0,75,0.00,,,0.00,Wunderground v.1.15,2013-11-30 01:35:00,
2013-11-29 20:40:00,54.2,46.4,30.45,North,32767,4.0,4.0,75,0.00,,,0.00,Wunderground v.1.15,2013-11-30 01:40:00,
2013-11-29 20:50:00,54.1,46.0,30.45,North,32767,3.0,3.0,74,0.00,,,0.00,Wunderground v.1.15,2013-11-30 01:50:00,
2013-11-29 20:55:00,54.0,46.3,30.45,North,32767,3.0,3.0,75,0.00,,,0.00,Wunderground v.1.15,2013-11-30 01:55:00,
2013-11-29 21:05:00,54.0,46.3,30.46,North,32767,2.0,9.0,75,0.00,,,0.00,Wunderground v.1.15,2013-11-30 02:05:00,
2013-11-29 21:15:00,53.9,46.5,30.46,North,32767,2.0,9.0,76,0.00,,,0.00,Wunderground v.1.15,2013-11-30 02:15:00,
2013-11-29 21:25:00,53.8,46.1,30.45,North,32767,2.0,9.0,75,0.00,,,0.00,Wunderground v.1.15,2013-11-30 02:25:00,
2013-11-29 21:30:00,53.8,46.1,30.45,North,32767,2.0,4.0,75,0.00,,,0.00,Wunderground v.1.15,2013-11-30 02:30:00,
2013-11-29 21:40:00,53.8,46.1,30.46,North,32767,3.0,3.0,75,0.00,,,0.00,Wunderground v.1.15,2013-11-30 02:40:00,
2013-11-29 21:45:00,53.8,46.1,30.46,North,32767,3.0,3.0,75,0.00,,,0.00,Wunderground v.1.15,2013-11-30 02:45:00,
2013-11-29 21:55:00,53.9,46.2,30.46,North,32767,3.0,3.0,75,0.00,,,0.00,Wunderground v.1.15,2013-11-30 02:55:00,
2013-11-29 22:05:00,53.9,45.8,30.46,North,32767,3.0,8.0,74,0.00,,,0.00,Wunderground v.1.15,2013-11-30 03:05:00,
2013-11-29 22:15:00,53.9,45.8,30.46,North,32767,3.0,8.0,74,0.00,,,0.00,Wunderground v.1.15,2013-11-30 03:15:00,
2013-11-29 22:25:00,53.9,46.2,30.46,North,32767,2.0,3.0,75,0.00,,,0.00,Wunderground v.1.15,2013-11-30 03:25:00,
2013-11-29 22:30:00,53.9,46.2,30.45,North,32767,2.0,3.0,75,0.00,,,0.00,Wunderground v.1.15,2013-11-30 03:30:00,
2013-11-29 22:40:00,53.9,46.5,30.45,North,32767,2.0,2.0,76,0.00,,,0.00,Wunderground v.1.15,2013-11-30 03:40:00,
2013-11-29 22:50:00,53.9,46.2,30.45,North,32767,2.0,4.0,75,0.00,,,0.00,Wunderground v.1.15,2013-11-30 03:50:00,
2013-11-29 23:00:00,53.8,45.7,30.44,North,32767,2.0,2.0,74,0.00,,,0.00,Wunderground v.1.15,2013-11-30 04:00:00,
2013-11-29 23:10:00,53.8,46.1,30.44,North,32767,3.0,3.0,75,0.00,,,0.00,Wunderground v.1.15,2013-11-30 04:10:00,
2013-11-29 23:15:00,53.8,46.1,30.44,North,32767,2.0,7.0,75,0.00,,,0.00,Wunderground v.1.15,2013-11-30 04:15:00,
2013-11-29 23:25:00,53.7,46.0,30.44,North,32767,3.0,7.0,75,0.00,,,0.00,Wunderground v.1.15,2013-11-30 04:25:00,
2013-11-29 23:30:00,53.6,45.5,30.44,North,32767,3.0,3.0,74,0.00,,,0.00,Wunderground v.1.15,2013-11-30 04:30:00,
2013-11-29 23:40:00,53.4,45.7,30.43,North,32767,3.0,3.0,75,0.00,,,0.00,Wunderground v.1.15,2013-11-30 04:40:00,
2013-11-29 23:50:00,53.1,45.7,30.43,North,32767,2.0,2.0,76,0.00,,,0.00,Wunderground v.1.15,2013-11-30 04:50:00,